Time;durP1;ratioP1;P1;durP2;ratioP2;P2;SDS_P1;SDS_P2;PMS_P1;PMS_P2;Temp;Humidity;BMP_temperature;BMP_pressure;BME280_temperature;BME280_humidity;BME280_pressure;Samples;Min_cycle;Max_cycle;Signal;HPM_P1;HPM_P2
2021/04/30 00:00:37;;;;;;;7.28;4.25;;;;;;;17.13;30.98;101572.69;5033421;28;20057;-74
2021/04/30 00:03:04;;;;;;;7.13;3.75;;;;;;;17.08;31.01;101570.97;5032158;28;20464;-74
2021/04/30 00:05:30;;;;;;;6.30;4.00;;;;;;;17.06;31.00;101564.13;5033346;28;20053;-74
2021/04/30 00:07:56;;;;;;;6.05;4.25;;;;;;;17.04;31.03;101561.72;5033597;28;20073;-75
2021/04/30 00:10:23;;;;;;;5.20;3.78;;;;;;;16.99;31.32;101564.66;5033253;28;20029;-74
2021/04/30 00:12:49;;;;;;;6.05;4.07;;;;;;;16.93;31.26;101563.28;5033052;28;20030;-74
2021/04/30 00:15:15;;;;;;;5.25;3.47;;;;;;;16.93;31.48;101557.75;5033240;28;20025;-73
2021/04/30 00:17:41;;;;;;;4.95;3.90;;;;;;;16.91;31.21;101565.53;5033146;28;20065;-75
2021/04/30 00:20:07;;;;;;;4.97;3.70;;;;;;;16.86;31.31;101561.06;5033133;28;20060;-77
2021/04/30 00:22:33;;;;;;;6.95;3.65;;;;;;;16.84;31.42;101568.03;5033145;28;20033;-77
2021/04/30 00:24:59;;;;;;;7.93;3.80;;;;;;;16.80;31.42;101561.56;5033106;28;20025;-74
2021/04/30 00:27:25;;;;;;;4.90;3.80;;;;;;;16.79;31.20;101552.50;5031734;28;20037;-73
2021/04/30 00:29:51;;;;;;;5.35;4.00;;;;;;;16.73;31.61;101561.31;5032820;28;20116;-73
2021/04/30 00:32:16;;;;;;;5.93;3.80;;;;;;;16.68;31.50;101553.97;5031625;28;20040;-75
2021/04/30 00:34:42;;;;;;;7.53;4.18;;;;;;;16.63;31.52;101552.25;5031436;28;20076;-74
2021/04/30 00:37:08;;;;;;;5.90;3.60;;;;;;;16.61;31.69;101551.75;5032629;28;20035;-77
2021/04/30 00:39:35;;;;;;;6.18;4.40;;;;;;;16.58;31.48;101548.88;5032780;28;20124;-74
2021/04/30 00:42:01;;;;;;;8.27;5.03;;;;;;;16.55;31.61;101552.28;5015149;28;20542;-74
2021/04/30 00:44:27;;;;;;;6.85;5.35;;;;;;;16.50;31.82;101550.53;5032667;28;20029;-74
2021/04/30 00:46:52;;;;;;;8.20;5.30;;;;;;;16.50;31.60;101550.53;5031363;28;20499;-77
2021/04/30 00:49:18;;;;;;;7.35;5.78;;;;;;;16.42;32.02;101545.88;5030944;28;20045;-73
2021/04/30 00:51:43;;;;;;;10.15;5.70;;;;;;;16.45;31.95;101544.38;5031513;28;20033;-74
2021/04/30 00:54:09;;;;;;;8.30;5.93;;;;;;;16.44;31.60;101546.34;5032702;28;20052;-73
2021/04/30 00:56:35;;;;;;;8.88;5.82;;;;;;;16.53;31.67;101541.56;5032446;28;20108;-75
2021/04/30 00:59:01;;;;;;;8.82;6.07;;;;;;;16.24;32.16;101552.59;5032450;28;20116;-78
2021/04/30 01:01:27;;;;;;;7.10;5.22;;;;;;;16.26;32.00;101550.34;5032583;28;20044;-74
2021/04/30 01:03:53;;;;;;;13.23;6.18;;;;;;;16.20;32.38;101551.66;5032464;28;20052;-74
2021/04/30 01:06:19;;;;;;;8.57;5.07;;;;;;;16.21;32.19;101551.31;5032336;28;20468;-76
2021/04/30 01:08:45;;;;;;;6.85;5.40;;;;;;;16.23;32.17;101551.78;5032212;28;20033;-74
2021/04/30 01:11:14;;;;;;;6.85;5.07;;;;;;;16.21;32.20;101556.03;5032440;28;20234;-76
2021/04/30 01:13:40;;;;;;;10.07;5.30;;;;;;;16.16;32.26;101553.44;5032467;28;20036;-77
2021/04/30 01:16:06;;;;;;;7.72;5.47;;;;;;;16.15;32.34;101554.59;5032352;28;20029;-74
2021/04/30 01:18:42;;;;;;;8.05;5.10;;;;;;;16.08;32.45;101560.63;5030780;28;20021;-74
2021/04/30 01:21:09;;;;;;;7.72;5.47;;;;;;;16.12;32.44;101553.31;5031659;28;20134;-74
2021/04/30 01:23:53;;;;;;;7.10;5.25;;;;;;;16.01;32.50;101552.84;5035731;28;20075;-74
2021/04/30 01:26:20;;;;;;;8.15;5.05;;;;;;;16.04;32.45;101548.66;5036263;28;20033;-74
2021/04/30 01:28:47;;;;;;;5.55;4.70;;;;;;;15.99;32.46;101557.91;5035991;28;20025;-77
2021/04/30 01:31:14;;;;;;;9.35;4.40;;;;;;;15.94;32.43;101551.75;5036521;28;20072;-74
2021/04/30 01:33:40;;;;;;;10.88;5.68;;;;;;;15.95;32.31;101550.63;5036252;28;20056;-74
2021/04/30 01:36:07;;;;;;;5.72;4.68;;;;;;;15.89;32.59;101551.94;5036034;28;20061;-74
2021/04/30 01:38:32;;;;;;;7.95;5.05;;;;;;;15.90;32.36;101557.13;5036176;28;20105;-73
2021/04/30 01:40:59;;;;;;;6.78;4.68;;;;;;;15.83;32.70;101551.31;5036093;28;20064;-77
2021/04/30 01:43:25;;;;;;;7.18;4.47;;;;;;;15.81;32.43;101551.63;5036046;28;20037;-76
2021/04/30 01:45:59;;;;;;;7.07;4.65;;;;;;;15.75;32.60;101552.13;5035996;28;20034;-73
2021/04/30 01:48:27;;;;;;;8.93;5.05;;;;;;;15.69;32.84;101554.25;5034360;28;20036;-74
2021/04/30 01:50:53;;;;;;;7.20;5.28;;;;;;;15.70;32.77;101550.34;5035842;28;20053;-77
2021/04/30 01:53:21;;;;;;;7.65;4.72;;;;;;;15.64;32.64;101548.09;5036268;28;20038;-74
2021/04/30 01:55:48;;;;;;;6.28;4.50;;;;;;;15.63;32.92;101547.28;5035776;28;20407;-73
2021/04/30 01:58:16;;;;;;;10.38;5.78;;;;;;;15.62;32.81;101550.38;5035854;28;20037;-73
2021/04/30 02:00:41;;;;;;;7.38;4.65;;;;;;;15.62;32.72;101555.88;5035769;28;20034;-77
2021/04/30 02:03:07;;;;;;;6.47;5.00;;;;;;;15.80;32.40;101554.72;5035717;28;20083;-75
2021/04/30 02:05:33;;;;;;;8.38;5.07;;;;;;;15.61;32.74;101555.09;5035625;28;20026;-75
2021/04/30 02:08:07;;;;;;;8.60;4.72;;;;;;;15.60;32.70;101556.19;5035429;28;20026;-74
2021/04/30 02:10:33;;;;;;;6.43;5.10;;;;;;;15.57;32.68;101561.53;5035361;28;20033;-73
2021/04/30 02:13:00;;;;;;;7.68;5.00;;;;;;;15.50;32.89;101560.09;5034263;28;20021;-74
2021/04/30 02:15:28;;;;;;;8.38;4.57;;;;;;;15.51;32.87;101558.97;5035505;28;20104;-73
2021/04/30 02:17:54;;;;;;;7.85;5.90;;;;;;;15.53;32.79;101562.19;5035281;28;20024;-74
2021/04/30 02:20:21;;;;;;;9.95;5.55;;;;;;;15.46;33.04;101555.56;5035356;28;20025;-75
2021/04/30 02:22:48;;;;;;;11.40;5.57;;;;;;;15.46;32.93;101563.81;5034068;28;20086;-77
2021/04/30 02:25:15;;;;;;;8.40;5.63;;;;;;;15.40;33.13;101562.38;5035158;28;20021;-74
2021/04/30 02:27:41;;;;;;;7.75;5.85;;;;;;;15.32;32.98;101561.25;5035176;28;20427;-73
2021/04/30 02:30:09;;;;;;;8.65;6.03;;;;;;;15.25;33.22;101555.41;5034966;28;20029;-73
2021/04/30 02:32:36;;;;;;;9.80;6.55;;;;;;;15.33;33.24;101557.34;5035053;28;20021;-74
2021/04/30 02:35:04;;;;;;;7.57;6.50;;;;;;;15.26;33.23;101557.03;5034875;28;20022;-73
2021/04/30 02:37:30;;;;;;;8.02;5.80;;;;;;;15.23;33.09;101558.50;5033764;28;20048;-74
2021/04/30 02:39:56;;;;;;;8.82;5.95;;;;;;;15.19;33.26;101565.81;5035080;28;20026;-74
2021/04/30 02:42:21;;;;;;;7.15;5.25;;;;;;;15.24;33.32;101559.31;5033447;28;20079;-74
2021/04/30 02:44:47;;;;;;;7.65;5.40;;;;;;;15.19;33.36;101557.53;5034903;28;20025;-74
2021/04/30 02:47:13;;;;;;;7.32;5.60;;;;;;;15.17;33.29;101558.97;5034876;28;20423;-77
2021/04/30 02:49:45;;;;;;;7.30;5.45;;;;;;;15.18;33.25;101561.41;5034355;28;20136;-75
2021/04/30 02:52:14;;;;;;;9.48;4.90;;;;;;;15.09;33.33;101562.53;5034859;28;20040;-73
2021/04/30 02:54:39;;;;;;;11.52;5.80;;;;;;;15.03;33.55;101555.56;5034814;28;20032;-76
2021/04/30 02:57:05;;;;;;;7.20;4.85;;;;;;;15.07;33.57;101559.31;5034653;28;20037;-74
2021/04/30 02:59:31;;;;;;;8.48;5.00;;;;;;;15.02;33.45;101562.22;5034549;28;20029;-74
2021/04/30 03:01:57;;;;;;;7.60;5.75;;;;;;;15.06;33.40;101557.69;5033352;28;20065;-74
2021/04/30 03:04:23;;;;;;;7.40;5.30;;;;;;;15.03;33.49;101555.56;5034359;28;20113;-77
2021/04/30 03:06:49;;;;;;;6.35;4.93;;;;;;;15.04;33.48;101554.44;5033364;28;20079;-73
2021/04/30 03:09:15;;;;;;;7.38;4.32;;;;;;;15.00;33.42;101557.03;5033071;28;20021;-74
2021/04/30 03:11:41;;;;;;;6.93;4.93;;;;;;;14.92;33.45;101550.41;5034538;28;20108;-74
2021/04/30 03:14:07;;;;;;;6.53;5.35;;;;;;;14.88;33.40;101546.66;5032740;28;20107;-74
2021/04/30 03:16:33;;;;;;;7.03;5.63;;;;;;;14.90;33.41;101560.13;5033017;28;20540;-73
2021/04/30 03:18:58;;;;;;;6.85;4.57;;;;;;;14.89;33.42;101547.50;5033012;28;20017;-74
2021/04/30 03:21:24;;;;;;;10.65;5.57;;;;;;;14.88;33.42;101549.41;5034216;28;20510;-74
2021/04/30 03:23:50;;;;;;;5.97;4.80;;;;;;;14.86;33.43;101546.19;5034056;28;20025;-73
2021/04/30 03:26:16;;;;;;;6.75;4.95;;;;;;;14.84;33.63;101551.19;5034096;28;20075;-74
2021/04/30 03:28:41;;;;;;;8.30;5.40;;;;;;;14.70;33.97;101556.03;5034115;28;20045;-74
2021/04/30 03:31:07;;;;;;;7.88;5.47;;;;;;;14.85;33.47;101557.50;5032563;28;20032;-77
2021/04/30 03:33:32;;;;;;;7.15;6.05;;;;;;;14.82;33.58;101553.47;5034131;28;20029;-74
2021/04/30 03:35:58;;;;;;;6.07;4.72;;;;;;;14.82;33.55;101553.47;5034182;28;20022;-77
2021/04/30 03:38:24;;;;;;;10.55;6.00;;;;;;;14.77;33.92;101556.38;5034055;28;20506;-73
2021/04/30 03:40:50;;;;;;;7.93;5.43;;;;;;;14.79;33.88;101545.84;5033945;28;20068;-74
2021/04/30 03:43:15;;;;;;;8.25;5.68;;;;;;;14.85;33.68;101541.00;5033742;28;20110;-73
2021/04/30 03:45:41;;;;;;;7.68;5.80;;;;;;;14.86;33.61;101532.41;5033400;28;20407;-74
2021/04/30 03:48:07;;;;;;;8.52;6.32;;;;;;;14.78;33.77;101543.41;5033576;28;20025;-76
2021/04/30 03:50:33;;;;;;;8.73;5.80;;;;;;;14.78;33.88;101540.66;5033307;28;20407;-77
2021/04/30 03:52:59;;;;;;;9.07;5.97;;;;;;;14.74;34.14;101535.00;5033699;28;20033;-73
2021/04/30 03:55:25;;;;;;;7.90;5.55;;;;;;;14.83;33.74;101533.06;5033554;28;20021;-74
2021/04/30 03:57:50;;;;;;;6.95;5.53;;;;;;;14.83;34.10;101533.06;5033439;28;20079;-74
2021/04/30 04:00:16;;;;;;;13.50;5.60;;;;;;;14.78;34.20;101535.97;5033808;28;20057;-75
2021/04/30 04:02:42;;;;;;;8.27;5.68;;;;;;;14.84;33.99;101534.69;5032257;28;20033;-73
2021/04/30 04:05:08;;;;;;;7.95;5.93;;;;;;;14.83;33.99;101540.53;5033420;28;20036;-73
2021/04/30 04:07:34;;;;;;;9.52;6.00;;;;;;;14.83;34.04;101533.06;5032055;28;20034;-74
2021/04/30 04:10:00;;;;;;;8.32;5.55;;;;;;;14.85;34.10;101528.06;5032138;28;20071;-73
2021/04/30 04:12:25;;;;;;;7.13;5.25;;;;;;;14.89;34.05;101533.75;5031901;28;20029;-77
2021/04/30 04:14:51;;;;;;;8.90;5.53;;;;;;;14.87;34.22;101535.97;5032132;28;20059;-73
2021/04/30 04:17:17;;;;;;;9.77;6.40;;;;;;;14.88;34.24;101535.66;5033102;28;20091;-73
2021/04/30 04:19:48;;;;;;;7.80;5.38;;;;;;;14.94;34.29;101537.13;5033208;28;20458;-76
2021/04/30 04:22:15;;;;;;;7.68;5.13;;;;;;;14.98;34.04;101540.84;5031974;28;20029;-73
2021/04/30 04:24:42;;;;;;;8.32;5.88;;;;;;;14.93;34.28;101532.75;5033120;28;20037;-75
2021/04/30 04:27:08;;;;;;;8.68;5.90;;;;;;;14.94;34.22;101539.06;5033075;28;20029;-73
2021/04/30 04:29:34;;;;;;;8.05;5.03;;;;;;;14.94;34.40;101539.06;5032935;28;20038;-74
2021/04/30 04:32:00;;;;;;;6.20;4.88;;;;;;;14.97;34.28;101536.50;5032950;28;20057;-73
2021/04/30 04:34:26;;;;;;;10.05;5.93;;;;;;;15.05;34.01;101534.06;5032614;28;20537;-74
2021/04/30 04:36:52;;;;;;;10.05;5.15;;;;;;;14.91;34.23;101539.72;5032681;28;20029;-74
2021/04/30 04:39:18;;;;;;;11.55;5.50;;;;;;;14.82;34.67;101542.47;5032845;28;20465;-73
2021/04/30 04:41:44;;;;;;;11.95;5.35;;;;;;;14.94;34.43;101539.88;5032852;28;20086;-78
2021/04/30 04:44:09;;;;;;;7.78;6.05;;;;;;;15.00;34.23;101540.53;5032585;28;20517;-73
2021/04/30 04:46:35;;;;;;;20.70;8.50;;;;;;;14.92;34.43;101536.63;5032688;28;20037;-74
2021/04/30 04:49:00;;;;;;;10.73;6.30;;;;;;;14.83;34.63;101535.03;5032582;28;20045;-73
2021/04/30 04:51:26;;;;;;;10.02;6.25;;;;;;;14.91;34.36;101543.28;5032731;28;20037;-73
2021/04/30 04:53:51;;;;;;;10.35;5.38;;;;;;;14.81;34.72;101545.50;5031386;28;20025;-74
2021/04/30 04:56:17;;;;;;;9.68;6.15;;;;;;;14.97;34.43;101549.44;5031922;28;20037;-77
2021/04/30 04:58:43;;;;;;;9.23;5.90;;;;;;;14.97;34.34;101549.44;5032732;28;20029;-74
2021/04/30 05:01:08;;;;;;;10.68;5.55;;;;;;;15.03;34.38;101541.81;5032539;28;20100;-73
2021/04/30 05:03:34;;;;;;;12.10;7.28;;;;;;;14.99;34.56;101542.47;5032624;28;20555;-77
2021/04/30 05:06:00;;;;;;;12.77;6.03;;;;;;;15.08;34.54;101544.41;5032492;28;20519;-75
2021/04/30 05:08:25;;;;;;;8.70;5.20;;;;;;;15.06;34.80;101546.69;5032630;28;20484;-73
2021/04/30 05:10:51;;;;;;;15.18;6.28;;;;;;;15.12;34.66;101548.16;5031212;28;20477;-73
2021/04/30 05:13:16;;;;;;;12.07;5.90;;;;;;;15.12;34.84;101545.41;5032409;28;20108;-73
2021/04/30 05:15:42;;;;;;;11.90;6.78;;;;;;;15.11;34.71;101547.31;5031034;28;20469;-76
2021/04/30 05:18:08;;;;;;;10.05;6.45;;;;;;;15.09;34.83;101552.34;5031894;28;20030;-74
2021/04/30 05:20:33;;;;;;;11.13;5.72;;;;;;;15.05;34.87;101550.56;5030872;28;20105;-78
2021/04/30 05:23:00;;;;;;;15.32;6.32;;;;;;;15.09;34.96;101552.34;5030286;28;20053;-77
2021/04/30 05:25:26;;;;;;;11.80;5.88;;;;;;;15.30;34.69;101547.00;5031092;28;20099;-74
2021/04/30 05:27:52;;;;;;;12.88;6.05;;;;;;;15.22;34.63;101545.06;5032327;28;20476;-77
2021/04/30 05:30:17;;;;;;;9.93;6.55;;;;;;;15.49;34.45;101552.16;5032350;28;20059;-73
2021/04/30 05:32:43;;;;;;;12.25;6.70;;;;;;;15.44;34.44;101558.66;5032355;28;20034;-74
2021/04/30 05:35:10;;;;;;;12.73;6.13;;;;;;;15.52;34.45;101557.03;5031968;28;20030;-74
2021/04/30 05:37:35;;;;;;;11.15;5.60;;;;;;;15.61;34.43;101557.00;5032181;28;20108;-74
2021/04/30 05:40:01;;;;;;;8.35;5.93;;;;;;;15.66;34.35;101554.91;5030861;28;20446;-74
2021/04/30 05:42:28;;;;;;;11.00;6.68;;;;;;;15.68;34.35;101558.16;5030214;28;20026;-74
2021/04/30 05:44:53;;;;;;;9.52;6.25;;;;;;;15.59;34.71;101565.59;5032222;28;20030;-73
2021/04/30 05:47:20;;;;;;;7.05;5.10;;;;;;;15.69;34.51;101562.53;5032116;28;20386;-75
2021/04/30 05:49:46;;;;;;;13.43;6.38;;;;;;;15.65;34.50;101575.34;5031043;28;20087;-74
2021/04/30 05:52:12;;;;;;;7.45;5.68;;;;;;;15.64;34.59;101565.47;5014797;28;20025;-74
2021/04/30 05:54:38;;;;;;;8.13;5.20;;;;;;;15.98;34.22;101572.81;5017702;28;20036;-74
2021/04/30 05:57:04;;;;;;;11.75;6.10;;;;;;;15.74;34.65;101572.56;5024203;28;20032;-75
2021/04/30 05:59:30;;;;;;;8.20;5.32;;;;;;;15.91;34.40;101571.72;5025051;28;20029;-76
2021/04/30 06:01:55;;;;;;;10.02;6.03;;;;;;;15.79;34.71;101570.47;5013664;28;20029;-74
2021/04/30 06:04:23;;;;;;;12.15;7.80;;;;;;;15.96;34.56;101572.34;5015029;28;20033;-76
2021/04/30 06:06:50;;;;;;;10.35;6.38;;;;;;;16.07;34.45;101573.59;5015223;28;20059;-74
2021/04/30 06:09:19;;;;;;;11.05;6.00;;;;;;;16.04;34.43;101563.25;5023232;28;20025;-74
2021/04/30 06:11:45;;;;;;;7.97;5.70;;;;;;;16.14;34.60;101575.84;5035484;28;20044;-76
2021/04/30 06:14:11;;;;;;;9.70;5.47;;;;;;;16.20;34.47;101576.47;5030830;28;20071;-76
2021/04/30 06:16:38;;;;;;;9.50;6.32;;;;;;;16.16;34.55;101579.06;5035086;28;20491;-74
2021/04/30 06:19:04;;;;;;;10.98;5.70;;;;;;;16.35;34.27;101576.72;5035552;28;20476;-74
2021/04/30 06:21:30;;;;;;;8.38;6.18;;;;;;;16.42;34.20;101569.88;5035417;28;20022;-73
2021/04/30 06:23:56;;;;;;;9.18;5.53;;;;;;;16.52;34.25;101569.50;5035714;28;20056;-74
2021/04/30 06:26:21;;;;;;;19.30;7.43;;;;;;;16.33;34.69;101578.22;5035168;28;20037;-74
2021/04/30 06:28:47;;;;;;;102.50;48.83;;;;;;;16.50;34.39;101582.81;5007888;28;20033;-74
2021/04/30 06:31:12;;;;;;;15.23;9.50;;;;;;;16.45;34.91;101581.06;5033611;28;20496;-75
2021/04/30 06:33:39;;;;;;;11.07;7.25;;;;;;;16.35;35.15;101575.91;5032873;28;20055;-74
2021/04/30 06:36:06;;;;;;;11.55;6.45;;;;;;;16.48;34.95;101588.69;5034774;28;20079;-74
2021/04/30 06:38:31;;;;;;;9.45;5.60;;;;;;;16.53;34.92;101585.72;5026983;28;20037;-73
2021/04/30 06:40:57;;;;;;;11.40;6.32;;;;;;;16.55;35.14;101577.94;5025579;28;20021;-74
2021/04/30 06:43:23;;;;;;;9.85;6.55;;;;;;;16.75;34.70;101584.66;5026723;28;20025;-74
2021/04/30 06:45:48;;;;;;;11.07;5.78;;;;;;;16.73;34.88;101581.44;5033880;28;20030;-77
2021/04/30 06:48:14;;;;;;;13.55;5.85;;;;;;;16.76;34.88;101580.75;5020874;28;20032;-74
2021/04/30 06:50:39;;;;;;;9.93;5.80;;;;;;;16.88;34.84;101580.84;5020548;28;20047;-73
2021/04/30 06:53:05;;;;;;;15.07;7.00;;;;;;;16.94;35.12;101586.97;5024380;28;20030;-74
2021/04/30 06:55:31;;;;;;;11.05;6.00;;;;;;;16.94;35.09;101589.75;5022379;28;20109;-76
2021/04/30 06:57:56;;;;;;;10.27;5.07;;;;;;;17.09;34.98;101582.81;5036917;28;20060;-73
2021/04/30 07:00:22;;;;;;;9.68;6.45;;;;;;;17.05;35.25;101585.41;5027227;28;20694;-74
2021/04/30 07:02:48;;;;;;;10.55;6.40;;;;;;;16.98;35.59;101587.09;5034590;28;20095;-73
2021/04/30 07:05:14;;;;;;;14.90;6.60;;;;;;;17.23;35.09;101588.88;5033723;28;20038;-73
2021/04/30 07:07:41;;;;;;;11.05;6.35;;;;;;;17.17;35.52;101585.50;5032980;28;20124;-75
2021/04/30 07:10:08;;;;;;;11.45;5.70;;;;;;;17.32;35.58;101586.03;5034539;28;20126;-76
2021/04/30 07:12:34;;;;;;;12.75;6.90;;;;;;;17.31;35.45;101589.94;5034273;28;20068;-74
2021/04/30 07:15:01;;;;;;;17.02;7.75;;;;;;;17.44;35.51;101584.13;5034352;28;20061;-75
2021/04/30 07:17:26;;;;;;;12.85;7.15;;;;;;;17.63;35.12;101575.34;5034193;28;20059;-74
2021/04/30 07:19:52;;;;;;;17.30;7.38;;;;;;;17.70;35.32;101581.16;5033370;28;20052;-74
2021/04/30 07:22:18;;;;;;;18.23;10.93;;;;;;;17.79;35.25;101589.34;5029117;28;20026;-77
2021/04/30 07:24:43;;;;;;;28.55;18.42;;;;;;;17.68;35.81;101588.94;5022150;28;20112;-76
2021/04/30 07:27:09;;;;;;;20.15;11.48;;;;;;;17.82;35.55;101585.88;5021923;28;20026;-75
2021/04/30 07:29:35;;;;;;;19.80;9.70;;;;;;;17.82;35.57;101593.38;5023277;28;20029;-75
2021/04/30 07:32:02;;;;;;;18.15;8.40;;;;;;;17.84;35.65;101586.38;5022116;28;20427;-74
2021/04/30 07:34:28;;;;;;;16.52;7.47;;;;;;;17.90;35.61;101589.72;5023880;28;20050;-74
2021/04/30 07:36:53;;;;;;;29.63;9.82;;;;;;;17.89;35.54;101593.63;5017950;28;20432;-74
2021/04/30 07:39:19;;;;;;;33.38;9.57;;;;;;;17.75;36.06;101591.16;5014062;28;20029;-76
2021/04/30 07:41:45;;;;;;;8.13;5.80;;;;;;;17.86;35.55;101594.31;5018935;28;20476;-76
2021/04/30 07:44:10;;;;;;;21.75;7.40;;;;;;;17.88;35.70;101598.34;5021748;28;20380;-74
2021/04/30 07:46:36;;;;;;;19.92;9.73;;;;;;;17.84;35.72;101599.41;5021827;28;20030;-77
2021/04/30 07:49:02;;;;;;;21.67;11.13;;;;;;;17.83;35.70;101606.03;5023404;28;20046;-75
2021/04/30 07:51:28;;;;;;;23.20;9.07;;;;;;;17.82;35.94;101608.00;5025503;28;20112;-75
2021/04/30 07:53:53;;;;;;;28.52;10.80;;;;;;;17.98;35.68;101608.16;5021625;28;20112;-75
2021/04/30 07:56:19;;;;;;;13.40;10.02;;;;;;;17.90;35.78;101601.56;5023247;28;20407;-74
2021/04/30 07:58:44;;;;;;;23.25;9.55;;;;;;;18.06;35.62;101601.75;5022181;28;20052;-75
2021/04/30 08:01:10;;;;;;;13.15;7.88;;;;;;;18.20;35.29;101604.97;5022130;28;20087;-74
2021/04/30 08:03:36;;;;;;;11.20;6.80;;;;;;;18.29;35.54;101602.94;5024867;28;20044;-73
2021/04/30 08:06:01;;;;;;;14.68;7.30;;;;;;;18.25;35.90;101609.47;5027394;28;20117;-73
2021/04/30 08:08:27;;;;;;;12.57;6.88;;;;;;;18.43;35.51;101608.09;5031772;28;20029;-72
2021/04/30 08:10:54;;;;;;;16.42;7.22;;;;;;;18.39;35.73;101607.19;5031532;28;20460;-72
2021/04/30 08:13:21;;;;;;;12.88;8.02;;;;;;;18.45;35.85;101607.78;5031659;28;20057;-73
2021/04/30 08:15:47;;;;;;;10.35;5.78;;;;;;;18.35;36.26;101611.00;5031514;28;20040;-72
2021/04/30 08:18:13;;;;;;;13.18;6.38;;;;;;;18.71;36.04;101605.50;5031280;28;20404;-72
2021/04/30 08:20:38;;;;;;;10.38;5.97;;;;;;;19.05;35.94;101606.16;5031272;28;20029;-73
2021/04/30 08:23:04;;;;;;;5.15;3.45;;;;;;;19.29;36.30;101611.63;5031100;28;20104;-72
2021/04/30 08:25:30;;;;;;;6.93;3.33;;;;;;;19.77;35.81;101598.75;5032683;28;20025;-72
2021/04/30 08:27:56;;;;;;;19.00;5.47;;;;;;;19.80;36.05;101602.75;5033108;28;20163;-73
2021/04/30 08:30:22;;;;;;;5.53;3.65;;;;;;;19.86;35.97;101604.13;5029024;28;20029;-72
2021/04/30 08:32:48;;;;;;;7.35;2.50;;;;;;;20.07;35.68;101609.44;5017048;28;20068;-72
2021/04/30 08:35:13;;;;;;;8.75;2.85;;;;;;;20.19;35.92;101607.41;5015917;28;20061;-73
2021/04/30 08:37:39;;;;;;;8.20;3.17;;;;;;;20.61;35.37;101603.28;5016626;28;20036;-73
2021/04/30 08:40:06;;;;;;;3.67;1.83;;;;;;;20.54;35.34;101608.66;5015483;28;21309;-73
2021/04/30 08:42:33;;;;;;;6.43;2.20;;;;;;;20.80;34.29;101611.69;5015011;28;20415;-72
2021/04/30 08:44:58;;;;;;;5.07;2.10;;;;;;;20.05;34.99;101620.09;5018785;28;20025;-73
2021/04/30 08:47:24;;;;;;;6.72;2.88;;;;;;;20.45;34.18;101612.44;5015800;28;20443;-72
2021/04/30 08:49:54;;;;;;;18.17;3.03;;;;;;;21.08;33.19;101611.50;5013857;28;20057;-73
2021/04/30 08:52:20;;;;;;;5.05;1.83;;;;;;;21.14;33.58;101614.81;5021802;28;20047;-72
2021/04/30 08:54:49;;;;;;;6.28;2.35;;;;;;;20.87;32.95;101622.94;5032565;28;20379;-73
2021/04/30 08:57:20;;;;;;;9.90;2.67;;;;;;;20.50;33.08;101619.69;5016427;28;21220;-74
2021/04/30 08:59:46;;;;;;;4.20;2.00;;;;;;;20.73;32.82;101617.88;5015859;28;20041;-73
2021/04/30 09:02:12;;;;;;;6.50;2.10;;;;;;;20.64;32.95;101624.78;5019079;28;20388;-73
2021/04/30 09:04:38;;;;;;;3.78;2.20;;;;;;;20.66;32.80;101625.22;5015414;28;20036;-73
2021/04/30 09:07:15;;;;;;;6.97;2.30;;;;;;;20.45;32.85;101626.31;5016709;28;20037;-72
2021/04/30 09:10:00;;;;;;;8.07;2.35;;;;;;;20.02;33.14;101627.13;5016187;28;20357;-73
2021/04/30 09:12:27;;;;;;;4.43;2.47;;;;;;;20.23;32.80;101629.66;5016132;28;20216;-71
2021/04/30 09:14:53;;;;;;;5.03;2.20;;;;;;;20.24;32.59;101623.75;5014853;28;20037;-72
2021/04/30 09:17:20;;;;;;;5.13;2.70;;;;;;;20.16;32.65;101626.72;5019180;28;20093;-72
2021/04/30 09:19:56;;;;;;;4.95;2.13;;;;;;;20.31;32.54;101625.91;5015189;28;20067;-72
2021/04/30 09:22:25;;;;;;;4.43;2.13;;;;;;;20.43;32.44;101634.16;5014998;28;20100;-72
2021/04/30 09:24:51;;;;;;;5.13;2.35;;;;;;;20.46;32.67;101632.66;5016056;28;20056;-72
2021/04/30 09:27:41;;;;;;;5.70;2.30;;;;;;;20.56;32.59;101639.66;5015849;28;20072;-73
2021/04/30 09:30:18;;;;;;;7.90;2.88;;;;;;;20.54;32.71;101639.19;5015018;28;20025;-72
2021/04/30 09:33:08;;;;;;;7.97;3.17;;;;;;;20.75;32.37;101642.50;5018962;28;20019;-72
2021/04/30 09:35:40;;;;;;;5.70;2.65;;;;;;;21.31;31.98;101642.19;5015750;28;20029;-72
2021/04/30 09:38:32;;;;;;;2.65;2.22;;;;;;;20.98;31.22;101623.19;5016329;28;20118;-73
2021/04/30 09:41:01;;;;;;;7.13;2.78;;;;;;;20.99;31.77;101636.72;5014061;28;20064;-72
2021/04/30 09:43:47;;;;;;;7.53;2.30;;;;;;;20.33;32.52;101631.09;5020405;28;20026;-73
2021/04/30 09:46:33;;;;;;;4.72;2.85;;;;;;;20.39;32.17;101641.59;5016106;28;20068;-74
2021/04/30 09:48:59;;;;;;;5.88;2.42;;;;;;;20.96;31.37;101645.78;5024582;28;20028;-72
2021/04/30 09:51:54;;;;;;;7.97;2.55;;;;;;;20.76;31.69;101644.09;5025556;28;20380;-77
2021/04/30 09:54:23;;;;;;;6.25;2.85;;;;;;;21.05;31.61;101640.00;5019598;28;20037;-73
2021/04/30 09:57:10;;;;;;;8.10;3.00;;;;;;;21.08;31.47;101644.84;5026035;28;20025;-75
2021/04/30 09:59:37;;;;;;;6.13;2.05;;;;;;;20.99;31.45;101645.03;5024019;28;20523;-74
2021/04/30 10:02:09;;;;;;;6.70;2.55;;;;;;;21.24;31.03;101631.72;5022990;28;20430;-72
2021/04/30 10:04:36;;;;;;;7.00;2.65;;;;;;;21.42;30.75;101637.69;5024368;28;20025;-73
2021/04/30 10:07:06;;;;;;;3.90;2.17;;;;;;;21.40;30.55;101645.59;5024263;28;20108;-73
2021/04/30 10:09:33;;;;;;;8.55;2.80;;;;;;;21.69;30.27;101640.59;5024218;28;20361;-77
2021/04/30 10:12:17;;;;;;;6.30;1.83;;;;;;;21.72;29.79;101642.66;5024931;28;20088;-73
2021/04/30 10:14:43;;;;;;;8.63;2.53;;;;;;;21.57;29.66;101628.47;5024893;28;20021;-74
2021/04/30 10:17:08;;;;;;;9.23;2.80;;;;;;;21.56;29.92;101637.19;5023192;28;20176;-72
2021/04/30 10:19:34;;;;;;;8.55;2.20;;;;;;;21.84;29.53;101639.72;5025247;28;20104;-73
2021/04/30 10:22:02;;;;;;;4.35;1.70;;;;;;;21.83;29.27;101636.09;5024447;28;20032;-72
2021/04/30 10:24:28;;;;;;;6.82;2.17;;;;;;;21.45;28.65;101634.16;5025520;28;20027;-72
2021/04/30 10:26:56;;;;;;;4.65;1.85;;;;;;;21.45;29.33;101639.72;5023726;28;20034;-73
2021/04/30 10:29:25;;;;;;;5.97;2.28;;;;;;;21.37;29.31;101637.97;5022561;28;20128;-73
2021/04/30 10:31:52;;;;;;;5.85;2.65;;;;;;;21.80;28.56;101638.84;5025279;28;20095;-73
2021/04/30 10:34:25;;;;;;;6.07;1.92;;;;;;;21.81;28.85;101644.03;5022720;28;20117;-72
2021/04/30 10:36:56;;;;;;;3.20;2.35;;;;;;;21.91;28.20;101639.84;5023186;28;20030;-74
2021/04/30 10:39:28;;;;;;;4.45;1.92;;;;;;;22.06;27.86;101640.91;5024540;28;20033;-73
2021/04/30 10:41:54;;;;;;;6.05;2.33;;;;;;;22.03;27.79;101650.81;5025311;28;20483;-76
2021/04/30 10:44:28;;;;;;;10.00;2.08;;;;;;;22.18;27.63;101646.34;5024140;28;20022;-72
2021/04/30 10:47:09;;;;;;;11.55;3.00;;;;;;;22.09;27.22;101643.00;5024676;28;20030;-73
2021/04/30 10:49:36;;;;;;;10.32;2.00;;;;;;;22.07;27.54;101650.88;5023245;28;20111;-73
2021/04/30 10:52:08;;;;;;;11.40;2.90;;;;;;;22.03;27.87;101648.03;5023360;28;20028;-72
2021/04/30 10:54:39;;;;;;;4.30;1.70;;;;;;;22.00;27.67;101643.22;5015336;28;20080;-73
2021/04/30 10:57:05;;;;;;;7.55;2.28;;;;;;;22.10;27.92;101650.97;5015677;28;20123;-73
2021/04/30 10:59:37;;;;;;;5.85;1.70;;;;;;;22.17;27.20;101638.38;5019764;28;20030;-72
2021/04/30 11:02:30;;;;;;;5.40;1.88;;;;;;;22.11;27.71;101640.63;5024843;28;20021;-73
2021/04/30 11:05:13;;;;;;;9.25;2.17;;;;;;;21.83;27.40;101632.53;5024911;28;20029;-73
2021/04/30 11:07:57;;;;;;;6.70;2.40;;;;;;;22.16;27.65;101634.78;5022799;28;20033;-74
2021/04/30 11:10:31;;;;;;;7.15;2.58;;;;;;;22.28;27.20;101636.56;5023674;28;20481;-73
2021/04/30 11:13:15;;;;;;;6.70;2.13;;;;;;;22.20;26.68;101638.41;5022619;28;20087;-73
2021/04/30 11:15:44;;;;;;;7.25;2.22;;;;;;;22.20;27.15;101635.63;5027640;28;20080;-73
2021/04/30 11:18:17;;;;;;;10.02;3.10;;;;;;;22.34;26.99;101635.88;5023219;28;20476;-73
2021/04/30 11:20:44;;;;;;;9.77;2.58;;;;;;;22.31;26.75;101631.06;5023144;28;20052;-73
2021/04/30 11:23:22;;;;;;;7.25;2.53;;;;;;;22.39;26.98;101632.00;5022755;28;20030;-72